Flight Track Log - Related Links

Times and Time Zones

All times are in EDT time to prevent confusion due to time zone crossing. See the CDG4646 flight status page for this flight to view local times or setup timezone preferences in your user account.

Time Position Orientation Groundspeed Altitude Reporting Facility
EDT Latitude Longitude Course Direction KTS MPH feet Rate Location/Type
Sun 08:26:00 AM 25.6749 110.8897 59° Northeast  Level Estimated
Sun 08:27:00 AM 25.7397 111.0117 59° Northeast  Level Estimated
Sun 08:28:00 AM 25.8045 111.1339 59° Northeast  Level Estimated
Sun 08:29:00 AM 25.8691 111.2562 60° Northeast  Level Estimated
Sun 08:30:00 AM 25.9337 111.3786 60° Northeast  Level Estimated
Sun 08:31:00 AM 25.9981 111.5012 60° Northeast  Level Estimated
Sun 08:32:00 AM 26.0625 111.6239 60° Northeast  Level Estimated
Sun 08:33:00 AM 26.1267 111.7467 60° Northeast  Level Estimated
Sun 08:34:00 AM 26.1908 111.8697 60° Northeast  Level Estimated
Sun 08:35:00 AM 26.2548 111.9928 60° Northeast  Level Estimated
Sun 08:36:00 AM 26.3188 112.1160 60° Northeast  Level Estimated
Sun 08:37:00 AM 26.3826 112.2394 60° Northeast  Level Estimated
Sun 08:38:00 AM 26.4463 112.3629 60° Northeast  Level Estimated
Sun 08:39:00 AM 26.5099 112.4865 60° Northeast  Level Estimated
Sun 08:40:00 AM 26.5734 112.6103 60° Northeast  Level Estimated
Sun 08:41:00 AM 26.6368 112.7343 60° Northeast  Level Estimated
Sun 08:42:00 AM 26.7001 112.8583 60° Northeast  Level Estimated
Sun 08:43:00 AM 26.7632 112.9825 60° Northeast  Level Estimated
Sun 08:44:00 AM 26.8263 113.1068 60° Northeast  Level Estimated
Sun 08:45:00 AM 26.8892 113.2313 60° Northeast  Level Estimated
Sun 08:46:00 AM 26.9521 113.3559 60° Northeast  Level Estimated
Sun 08:47:00 AM 27.0148 113.4807 61° Northeast  Level Estimated
Sun 08:48:00 AM 27.0774 113.6056 61° Northeast  Level Estimated
Sun 08:49:00 AM 27.1400 113.7306 61° Northeast  Level Estimated
Sun 08:50:00 AM 27.2024 113.8558 61° Northeast  Level Estimated
Sun 08:51:00 AM 27.2647 113.9811 61° Northeast  Level Estimated
Sun 08:52:00 AM 27.3269 114.1065 61° Northeast  Level Estimated
Sun 08:53:00 AM 27.3889 114.2321 61° Northeast  Level Estimated
Sun 08:54:00 AM 27.4509 114.3578 61° Northeast  Level Estimated
Sun 08:55:00 AM 27.5127 114.4837 61° Northeast  Level Estimated
Sun 08:56:00 AM 27.5745 114.6097 61° Northeast  Level Estimated
Sun 08:57:00 AM 27.6361 114.7359 61° Northeast  Level Estimated
Sun 08:58:00 AM 27.6976 114.8622 61° Northeast  Level Estimated
Sun 08:59:00 AM 27.7590 114.9886 61° Northeast  Level Estimated
Sun 09:00:00 AM 27.8202 115.1152 61° Northeast  Level Estimated
Sun 09:01:00 AM 27.8814 115.2419 61° Northeast  Level Estimated
Sun 09:02:00 AM 27.9424 115.3688 61° Northeast  Level Estimated
Sun 09:03:00 AM 28.0034 115.4958 61° Northeast  Level Estimated
Sun 09:04:00 AM 28.0642 115.6230 62° Northeast  Level Estimated
Sun 09:05:00 AM 28.1249 115.7503 62° Northeast  Level Estimated
Sun 09:06:00 AM 28.1854 115.8777 62° Northeast  Level Estimated
Sun 09:07:00 AM 28.2459 116.0053 62° Northeast  Level Estimated
Sun 09:08:00 AM 28.3062 116.1330 62° Northeast  Level Estimated
Sun 09:09:00 AM 28.3664 116.2609 62° Northeast  Level Estimated
Sun 09:10:00 AM 28.4265 116.3889 62° Northeast  Level Estimated
Sun 09:11:00 AM 28.4865 116.5171 62° Northeast  Level Estimated
Sun 09:12:00 AM 28.5464 116.6454 62° Northeast  Level Estimated
Sun 09:13:00 AM 28.6061 116.7739 62° Northeast  Level Estimated
Sun 09:14:00 AM 28.6657 116.9025 62° Northeast  Level Estimated
Sun 09:15:00 AM 28.7252 117.0312 62° Northeast  Level Estimated
Sun 09:16:00 AM 28.7846 117.1601 62° Northeast  Level Estimated
Sun 09:17:00 AM 28.8439 117.2892 62° Northeast  Level Estimated
Sun 09:18:00 AM 28.9030 117.4184 62° Northeast  Level Estimated
Sun 09:19:00 AM 28.9620 117.5477 62° Northeast  Level Estimated
Sun 09:20:00 AM 29.0209 117.6772 63° Northeast  Level Estimated
Sun 09:21:00 AM 29.0796 117.8068 63° Northeast  Level Estimated
Sun 09:22:00 AM 29.1383 117.9366 63° Northeast  Level Estimated
Sun 09:23:00 AM 29.1968 118.0665 63° Northeast  Level Estimated
Sun 09:24:00 AM 29.2551 118.1966 63° Northeast  Level Estimated
Sun 09:25:00 AM 29.3134 118.3268 63° Northeast  Level Estimated
Sun 09:26:00 AM 29.3715 118.4572 63° Northeast  Level Estimated
Sun 09:27:00 AM 29.4295 118.5877 63° Northeast  Level Estimated
Sun 09:28:00 AM 29.4874 118.7184 63° Northeast  Level Estimated
Sun 09:29:00 AM 29.5451 118.8492 63° Northeast  Level Estimated
Sun 09:30:00 AM 29.6028 118.9802 63° Northeast  Level Estimated
Sun 09:31:00 AM 29.6602 119.1113 63° Northeast  Level Estimated
Sun 09:32:00 AM 29.7176 119.2426 63° Northeast  Level Estimated
Sun 09:33:00 AM 29.7748 119.3740 63° Northeast  Level Estimated
Sun 09:34:00 AM 29.8319 119.5056 63° Northeast  Level Estimated
Sun 09:35:00 AM 29.8889 119.6373 63° Northeast  Level Estimated
Sun 09:36:00 AM 29.9457 119.7692 64° Northeast  Level Estimated
Sun 09:37:00 AM 30.0025 119.9012 64° Northeast  Level Estimated
Sun 09:38:00 AM 30.0590 120.0333 64° Northeast  Level Estimated
Sun 09:39:00 AM 30.1155 120.1657 64° Northeast  Level Estimated
Sun 09:40:00 AM 30.1718 120.2981 64° Northeast  Level Estimated
Sun 09:41:00 AM 30.2280 120.4308 64° Northeast  Level Estimated
Sun 09:42:00 AM 30.2283 120.4317 64° Northeast  Level Estimated
Sun 09:43:00 AM 30.2283 120.4317 North  Level Estimated
Sun 09:44:00 AM 30.2283 120.4317 North  Level Estimated
Sun 09:45:00 AM 30.2283 120.4317 North  Level Estimated
Sun 09:46:00 AM 30.2283 120.4317 North  Level Estimated
Sun 09:47:00 AM 30.2283 120.4317 North  Level Estimated
Sun 09:48:00 AM 30.2283 120.4317 North  Level Estimated
Sun 09:49:00 AM 30.2283 120.4317 North  Level Estimated
Sun 09:50:00 AM 30.2283 120.4317 North  Level Estimated
Sun 09:51:00 AM 30.2283 120.4317 North  Level Estimated
Sun 09:52:00 AM 30.2283 120.4317 North  Level Estimated
Sun 09:53:00 AM 30.2283 120.4317 North  Level Estimated
Sun 09:54:00 AM 30.2283 120.4317 North  Level Estimated
Sun 09:55:00 AM 30.2283 120.4317 North  Level Estimated
Sun 09:56:00 AM 30.2283 120.4317 North  Level Estimated
Sun 09:57:00 AM 30.2283 120.4317 North  Level Estimated

Login

Don't have an account? Register now (free) for customized features, flight alerts, and more!